ADDS METAR Data INFO
IDs: Format: Raw Decoded Include TAF

Data at: 0013 UTC 25 Nov 2017

KIAH 242353Z 13006KT 10SM SCT250 17/08 A2991 RMK AO2 SLP130 T01670083 10228 20167 55008
KIAH 242253Z 18006KT 10SM SCT250 21/03 A2991 RMK AO2 SLP128 T02110028
KIAH 242153Z 20005KT 10SM FEW250 22/02 A2992 RMK AO2 SLP133 T02170022
KIAH 242053Z VRB04KT 10SM FEW250 22/02 A2994 RMK AO2 SLP137 T02220017 56026
KIAH 241953Z 16008KT 10SM FEW250 22/01 A2995 RMK AO2 SLP142 T02170011
KIAH 241853Z VRB06KT 10SM FEW250 21/02 A2999 RMK AO2 SLP154 T02110022
KIAH 241753Z 17005KT 10SM FEW250 21/03 A3001 RMK AO2 SLP164 T02060033 10206 20033 58015
KIAH 241653Z 20004KT 10SM FEW250 18/04 A3004 RMK AO2 SLP172 T01830044
KIAH 241553Z 21006KT 10SM FEW250 16/06 A3006 RMK AO2 SLP180 T01610061
KIAH 241453Z 22003KT 10SM FEW250 12/07 A3006 RMK AO2 SLP179 T01220067 51009
KIAH 241353Z 00000KT 10SM FEW250 09/07 A3006 RMK AO2 SLP178 T00890072
KIAH 241253Z 00000KT 10SM FEW250 04/03 A3004 RMK AO2 SLP172 T00390028
KIAH 241153Z 00000KT 8SM CLR 06/04 A3003 RMK AO2 SLP170 T00560044 10072 20050 55003
KIAH 241053Z 00000KT 8SM CLR 06/05 A3003 RMK AO2 SLP168 T00610050
KIAH 240953Z 00000KT 10SM CLR 06/04 A3003 RMK AO2 SLP170 T00610044
KIAH 240853Z 00000KT 10SM CLR 06/04 A3004 RMK AO2 SLP174 T00610044 56012
KIAH 240753Z 00000KT 10SM CLR 07/05 A3005 RMK AO2 SLP178 T00720050
KIAH 240653Z 00000KT 10SM CLR 07/04 A3006 RMK AO2 SLP181 T00720044
KIAH 240553Z 00000KT 10SM CLR 07/04 A3008 RMK AO2 SLP186 T00720039 10133 20067 401890033 58006
KIAH 240453Z 00000KT 10SM CLR 07/04 A3009 RMK AO2 SLP191 T00720039
KIAH 240353Z 00000KT 10SM CLR 09/04 A3010 RMK AO2 SLP192 T00890039
KIAH 240253Z 00000KT 10SM CLR 09/04 A3009 RMK AO2 SLP191 T00940039 50005
KIAH 240153Z 00000KT 10SM CLR 11/04 A3010 RMK AO2 SLP192 T01110039
KIAH 240053Z 29003KT 10SM CLR 11/05 A3008 RMK AO2 SLP188 T01060050
KIAH 232353Z 00000KT 10SM CLR 13/03 A3008 RMK AO2 SLP186 T01280028 10189 20128 56003
KIAH 232253Z 32003KT 10SM FEW250 18/02 A3008 RMK AO2 SLP186 T01780017
KIAH 232153Z 00000KT 10SM FEW250 19/01 A3008 RMK AO2 SLP187 T01890011
KIAH 232053Z 36006KT 10SM FEW250 18/01 A3009 RMK AO2 SLP189 T01830011 56031
KIAH 231953Z 30005KT 10SM FEW250 18/02 A3010 RMK AO2 SLP194 T01830017
KIAH 231853Z 02003KT 10SM FEW250 17/02 A3013 RMK AO2 SLP203 T01670017
KIAH 231753Z 30003KT 10SM FEW250 15/03 A3018 RMK AO2 SLP220 T01500028 10156 20033 58014
KIAH 231653Z 00000KT 10SM FEW250 13/02 A3020 RMK AO2 SLP229 T01330022
KIAH 231553Z 00000KT 10SM FEW250 12/03 A3022 RMK AO2 SLP235 T01170028
KIAH 231453Z 08007KT 10SM FEW250 09/03 A3022 RMK AO2 SLP233 T00940033 51008
KIAH 231353Z VRB03KT 10SM FEW250 07/03 A3022 RMK AO2 SLP233 T00670033
KIAH 231253Z 35003KT 10SM FEW250 04/02 A3021 RMK AO2 SLP230 T00390022